Time;durP1;ratioP1;P1;durP2;ratioP2;P2;SDS_P1;SDS_P2;PMS_P1;PMS_P2;Temp;Humidity;BMP_temperature;BMP_pressure;BME280_temperature;BME280_humidity;BME280_pressure;Samples;Min_cycle;Max_cycle;Signal;HPM_P1;HPM_P2
2021/12/16 00:03:03;;;;;;;25.93;9.27;;;;;;;-145.69;100.00;73922.34;5072326;28;20283;-79
2021/12/16 00:05:49;;;;;;;24.67;8.77;;;;;;;-145.69;100.00;73914.38;5072606;28;20199;-79
2021/12/16 00:08:19;;;;;;;26.07;9.13;;;;;;;-145.69;100.00;73910.41;5072487;28;20672;-79
2021/12/16 00:10:53;;;;;;;25.53;9.37;;;;;;;-145.69;100.00;73924.34;5072750;28;20252;-79
2021/12/16 00:30:06;;;;;;;33.00;10.30;;;;;;;-145.69;100.00;73916.38;5072520;28;20218;-80
2021/12/16 00:35:16;;;;;;;33.07;10.67;;;;;;;-145.69;100.00;73926.34;5070066;28;20197;-80
2021/12/16 00:37:43;;;;;;;32.43;9.97;;;;;;;-145.69;100.00;73920.38;5072961;28;20653;-80
2021/12/16 00:40:12;;;;;;;35.03;9.93;;;;;;;-145.69;100.00;73928.31;5075540;28;20692;-80
2021/12/16 00:42:47;;;;;;;28.33;9.73;;;;;;;-145.69;100.00;73920.38;5075985;28;20654;-80
2021/12/16 00:45:34;;;;;;;31.20;9.90;;;;;;;-145.69;100.00;73924.34;5075632;28;20198;-80
2021/12/16 00:48:08;;;;;;;26.60;9.10;;;;;;;-145.69;100.00;73942.25;5075901;28;20348;-80
2021/12/16 00:56:09;;;;;;;28.37;9.93;;;;;;;-145.69;100.00;73930.31;5075500;28;20197;-79
2021/12/16 00:58:41;;;;;;;29.87;10.07;;;;;;;-145.69;100.00;73922.34;5075592;28;20195;-80
2021/12/16 01:01:16;;;;;;;31.30;11.03;;;;;;;-145.69;100.00;73936.28;5075630;28;20229;-80
2021/12/16 01:03:49;;;;;;;35.27;11.03;;;;;;;-145.69;100.00;73934.31;5075353;28;20198;-79
2021/12/16 01:06:41;;;;;;;56.20;11.33;;;;;;;-145.69;100.00;73928.31;5075595;28;20226;-79
2021/12/16 01:34:06;;;;;;;27.23;10.30;;;;;;;-145.69;100.00;73924.34;5054847;28;20197;-80
2021/12/16 01:47:46;;;;;;;29.17;10.80;;;;;;;-145.69;100.00;73930.31;5074470;28;20236;-80
2021/12/16 01:50:18;;;;;;;83.63;14.13;;;;;;;-145.69;100.00;73938.28;5073966;28;20202;-80
2021/12/16 01:53:06;;;;;;;33.40;11.37;;;;;;;-145.69;100.00;73946.25;5074370;28;20195;-80
2021/12/16 01:55:44;;;;;;;28.83;10.70;;;;;;;-145.69;100.00;73946.25;5074296;28;20656;-80
2021/12/16 01:58:15;;;;;;;88.60;14.83;;;;;;;-145.69;100.00;73954.22;5074338;28;20230;-80
2021/12/16 02:00:55;;;;;;;136.57;15.77;;;;;;;-145.69;100.00;73960.19;5073897;28;20317;-80
2021/12/16 02:03:26;;;;;;;62.50;12.00;;;;;;;-145.69;100.00;73966.16;5074450;28;20229;-80
2021/12/16 02:06:06;;;;;;;117.10;15.77;;;;;;;-145.69;100.00;73962.19;5074139;28;20285;-80
2021/12/16 02:08:38;;;;;;;232.67;19.17;;;;;;;-145.69;100.00;73954.22;5073975;28;20256;-79
2021/12/16 02:28:05;;;;;;;34.30;11.67;;;;;;;-145.69;100.00;73970.16;5073743;28;20201;-80
2021/12/16 02:36:23;;;;;;;34.73;11.67;;;;;;;-145.69;100.00;73954.22;5042308;28;20209;-80
2021/12/16 02:38:54;;;;;;;190.13;16.90;;;;;;;-145.69;100.00;73962.19;5073865;28;20198;-80
2021/12/16 02:41:21;;;;;;;74.73;12.97;;;;;;;-145.69;100.00;73962.19;5073565;28;20272;-80
2021/12/16 02:44:10;;;;;;;243.53;17.03;;;;;;;-145.69;100.00;73958.19;5073358;28;20203;-80
2021/12/16 02:49:23;;;;;;;109.00;13.57;;;;;;;-145.69;100.00;73964.16;5073241;28;20209;-81
2021/12/16 02:51:49;;;;;;;91.23;12.07;;;;;;;-145.69;100.00;73974.13;5073347;28;20661;-80
2021/12/16 02:54:18;;;;;;;83.93;12.30;;;;;;;-145.69;100.00;73970.16;5073015;28;20241;-81
2021/12/16 02:56:44;;;;;;;97.23;12.20;;;;;;;-145.69;100.00;73978.09;5073358;28;20198;-80
2021/12/16 02:59:11;;;;;;;49.13;11.73;;;;;;;-145.69;100.00;73990.06;5073369;28;20205;-80
2021/12/16 03:01:41;;;;;;;60.97;11.23;;;;;;;-145.69;100.00;73984.09;5072612;28;20227;-80
2021/12/16 03:04:12;;;;;;;46.93;10.40;;;;;;;-145.69;100.00;73970.16;5073098;28;20550;-81
2021/12/16 03:06:40;;;;;;;20.60;7.50;;;;;;;-145.69;100.00;73962.19;5072788;28;20199;-79
2021/12/16 03:09:08;;;;;;;17.00;5.63;;;;;;;-145.69;100.00;73958.19;5073286;28;20210;-80
2021/12/16 03:11:45;;;;;;;23.60;7.27;;;;;;;-145.69;100.00;73968.16;5072962;28;20195;-80
2021/12/16 03:14:30;;;;;;;26.27;7.53;;;;;;;-145.69;100.00;73966.16;5073050;28;20197;-81
2021/12/16 03:17:10;;;;;;;24.43;7.67;;;;;;;-145.69;100.00;73966.16;5072835;28;20665;-80
2021/12/16 03:19:50;;;;;;;23.33;7.43;;;;;;;-145.69;100.00;73954.22;5073048;28;20736;-80
2021/12/16 03:22:36;;;;;;;25.47;7.70;;;;;;;-145.69;100.00;73956.19;5072676;28;20246;-80
2021/12/16 03:25:13;;;;;;;27.40;8.07;;;;;;;-145.69;100.00;73942.25;5072879;28;20205;-80
2021/12/16 03:28:25;;;;;;;27.20;8.43;;;;;;;-145.69;100.00;73930.31;5072755;28;20198;-80
2021/12/16 03:33:52;;;;;;;23.73;7.23;;;;;;;-145.69;100.00;73930.31;5069921;28;20202;-80
2021/12/16 03:36:28;;;;;;;27.57;8.43;;;;;;;-145.69;100.00;73926.34;5073154;28;20285;-80
2021/12/16 03:38:59;;;;;;;22.73;7.73;;;;;;;-145.69;100.00;73928.31;5063105;28;20281;-80
2021/12/16 03:41:26;;;;;;;26.27;7.17;;;;;;;-145.69;100.00;73926.34;5072557;28;20218;-80
2021/12/16 03:43:58;;;;;;;38.43;8.50;;;;;;;-145.69;100.00;73934.31;5072523;28;20217;-80
2021/12/16 03:46:27;;;;;;;20.83;7.53;;;;;;;-145.69;100.00;73934.31;5072429;28;20230;-80
2021/12/16 03:48:59;;;;;;;24.93;8.30;;;;;;;-145.69;100.00;73934.31;5072713;28;20209;-80
2021/12/16 03:51:30;;;;;;;34.73;8.53;;;;;;;-145.69;100.00;73938.28;5072735;28;20256;-79
2021/12/16 03:54:03;;;;;;;26.67;7.90;;;;;;;-145.69;100.00;73920.38;5072168;28;20226;-80
2021/12/16 03:56:31;;;;;;;22.67;7.70;;;;;;;-145.69;100.00;73934.31;5072430;28;20201;-80
2021/12/16 03:58:59;;;;;;;20.80;7.87;;;;;;;-145.69;100.00;73924.34;5072422;28;20203;-80
2021/12/16 04:01:30;;;;;;;29.07;9.97;;;;;;;-145.69;100.00;73936.28;5072556;28;20593;-80
2021/12/16 04:03:57;;;;;;;32.07;7.87;;;;;;;-145.69;100.00;73950.22;5072363;28;20214;-81
2021/12/16 04:06:26;;;;;;;28.53;9.13;;;;;;;-145.69;100.00;73956.19;5072518;28;20203;-81
2021/12/16 04:08:54;;;;;;;28.10;8.57;;;;;;;-145.69;100.00;73942.25;5072484;28;20198;-80
2021/12/16 04:11:27;;;;;;;23.17;6.97;;;;;;;-145.69;100.00;73934.31;5072017;28;20194;-80
2021/12/16 04:13:57;;;;;;;24.53;7.83;;;;;;;-145.69;100.00;73934.31;5075099;28;20199;-80
2021/12/16 04:16:30;;;;;;;21.67;7.50;;;;;;;-145.69;100.00;73938.28;5076504;28;20203;-80
2021/12/16 04:18:58;;;;;;;27.47;7.90;;;;;;;-145.69;100.00;73948.25;5076627;28;20281;-80
2021/12/16 04:21:27;;;;;;;27.00;8.33;;;;;;;-145.69;100.00;73946.25;5075946;28;20689;-80
2021/12/16 04:23:55;;;;;;;20.60;7.47;;;;;;;-145.69;100.00;73942.25;5075909;28;20206;-80
2021/12/16 04:26:23;;;;;;;20.23;6.83;;;;;;;-145.69;100.00;73950.22;5075710;28;20202;-80
2021/12/16 04:28:49;;;;;;;21.60;7.80;;;;;;;-145.69;100.00;73950.22;5076068;28;20194;-81
2021/12/16 04:31:16;;;;;;;20.50;7.40;;;;;;;-145.69;100.00;73954.22;5075914;28;20206;-80
2021/12/16 04:33:44;;;;;;;24.03;7.97;;;;;;;-145.69;100.00;73954.22;5075949;28;20207;-81
2021/12/16 04:36:13;;;;;;;23.40;6.83;;;;;;;-145.69;100.00;73962.19;5075950;28;20195;-80
2021/12/16 04:38:41;;;;;;;16.67;6.30;;;;;;;-145.69;100.00;73966.16;5075999;28;20202;-80
2021/12/16 04:41:11;;;;;;;24.30;7.87;;;;;;;-145.69;100.00;73960.19;5075793;28;20236;-81
2021/12/16 04:43:40;;;;;;;25.47;7.20;;;;;;;-145.69;100.00;73972.13;5075520;28;20194;-80
2021/12/16 04:46:09;;;;;;;19.93;6.70;;;;;;;-145.69;100.00;73968.16;5075645;28;20248;-80
2021/12/16 04:48:36;;;;;;;18.27;6.87;;;;;;;-145.69;100.00;73962.19;5075507;28;20195;-81
2021/12/16 04:51:05;;;;;;;22.53;6.93;;;;;;;-145.69;100.00;73958.19;5075817;28;20225;-81
2021/12/16 04:53:32;;;;;;;18.37;6.37;;;;;;;-145.69;100.00;73952.22;5075606;28;20206;-80
2021/12/16 04:55:59;;;;;;;22.13;6.83;;;;;;;-145.69;100.00;73966.16;5075584;28;20203;-81
2021/12/16 04:58:26;;;;;;;20.17;6.73;;;;;;;-145.69;100.00;73960.19;5075439;28;20206;-81
2021/12/16 05:00:54;;;;;;;18.90;6.27;;;;;;;-145.69;100.00;73946.25;5075126;28;20574;-81
2021/12/16 05:03:21;;;;;;;19.37;6.90;;;;;;;-145.69;100.00;73938.28;5075232;28;20206;-80
2021/12/16 05:05:48;;;;;;;24.70;7.90;;;;;;;-145.69;100.00;73938.28;5075157;28;20195;-81
2021/12/16 05:08:16;;;;;;;23.93;7.43;;;;;;;-145.69;100.00;73926.34;5075487;28;20203;-81
2021/12/16 05:10:43;;;;;;;21.70;7.90;;;;;;;-145.69;100.00;73934.31;5075380;28;20202;-82
2021/12/16 05:13:09;;;;;;;19.93;8.00;;;;;;;-145.69;100.00;73930.31;5075247;28;20203;-81
2021/12/16 05:15:40;;;;;;;31.93;8.33;;;;;;;-145.69;100.00;73928.31;5074941;28;20205;-81
2021/12/16 05:18:11;;;;;;;21.43;7.93;;;;;;;-145.69;100.00;73938.28;5075269;28;20272;-81
2021/12/16 05:20:42;;;;;;;21.40;7.67;;;;;;;-145.69;100.00;73944.25;5074845;28;20604;-81
2021/12/16 05:26:14;;;;;;;23.70;7.40;;;;;;;-145.69;100.00;73946.25;5074360;28;20282;-81
2021/12/16 05:28:44;;;;;;;19.23;6.30;;;;;;;-145.69;100.00;73946.25;5075458;28;20242;-81
2021/12/16 05:31:12;;;;;;;19.50;7.07;;;;;;;-145.69;100.00;73952.22;5075018;28;20589;-81
2021/12/16 05:33:41;;;;;;;21.53;7.47;;;;;;;-145.69;100.00;73944.25;5075088;28;20203;-82
2021/12/16 05:36:08;;;;;;;19.90;6.60;;;;;;;-145.69;100.00;73954.22;5064025;28;20203;-82
2021/12/16 05:38:36;;;;;;;24.43;9.17;;;;;;;-145.69;100.00;73958.19;5054950;28;20210;-80
2021/12/16 05:41:06;;;;;;;26.97;8.27;;;;;;;-145.69;100.00;73968.16;5054551;28;20744;-81
2021/12/16 05:43:36;;;;;;;27.60;8.03;;;;;;;-145.69;100.00;73968.16;5055034;28;20196;-80
2021/12/16 05:46:04;;;;;;;24.03;8.13;;;;;;;-145.69;100.00;73970.16;5058336;28;20201;-80
2021/12/16 05:48:34;;;;;;;26.23;7.80;;;;;;;-145.69;100.00;73970.16;5074579;28;20211;-79
2021/12/16 05:51:07;;;;;;;24.27;7.60;;;;;;;-145.69;100.00;73974.13;5074637;28;20206;-81
2021/12/16 05:53:35;;;;;;;17.43;7.17;;;;;;;-145.69;100.00;73970.16;5074710;28;20205;-81
2021/12/16 05:56:02;;;;;;;27.57;8.03;;;;;;;-145.69;100.00;73972.13;5074513;28;20786;-80
2021/12/16 05:58:30;;;;;;;29.37;9.57;;;;;;;-145.69;100.00;73978.09;5074413;28;20199;-81
2021/12/16 06:01:00;;;;;;;31.83;9.77;;;;;;;-145.69;100.00;73972.13;5074478;28;20202;-83
2021/12/16 06:03:29;;;;;;;27.77;8.80;;;;;;;-145.69;100.00;73980.09;5073964;28;20202;-83
2021/12/16 06:05:56;;;;;;;26.77;8.73;;;;;;;-145.69;100.00;73990.06;5074343;28;20248;-83
2021/12/16 06:08:25;;;;;;;28.17;8.70;;;;;;;-145.69;100.00;73988.06;5073481;28;20199;-81
2021/12/16 06:13:48;;;;;;;35.33;10.57;;;;;;;-145.69;100.00;73962.19;5061823;28;20541;-82
2021/12/16 06:27:14;;;;;;;28.60;9.60;;;;;;;-145.69;100.00;73960.19;5072894;28;20245;-81
2021/12/16 06:29:45;;;;;;;24.67;9.03;;;;;;;-145.69;100.00;73968.16;5073381;28;20290;-81
2021/12/16 06:32:13;;;;;;;23.47;9.00;;;;;;;-145.69;100.00;73966.16;5073879;28;20206;-81
2021/12/16 06:34:40;;;;;;;21.87;8.07;;;;;;;-145.69;100.00;73976.13;5073414;28;20198;-81
2021/12/16 06:37:08;;;;;;;20.60;7.37;;;;;;;-145.69;100.00;73988.06;5073201;28;20202;-81
2021/12/16 06:39:35;;;;;;;25.30;8.20;;;;;;;-145.69;100.00;73974.13;5073870;28;20624;-82
2021/12/16 06:42:05;;;;;;;21.23;8.03;;;;;;;-145.69;100.00;73976.13;5073407;28;20705;-81
2021/12/16 06:44:37;;;;;;;29.50;9.17;;;;;;;-145.69;100.00;73982.09;5074249;28;20194;-81
2021/12/16 06:47:10;;;;;;;18.43;7.87;;;;;;;-145.69;100.00;73974.13;5073315;28;20664;-81
2021/12/16 06:49:39;;;;;;;24.97;8.03;;;;;;;-145.69;100.00;73966.16;5073409;28;20294;-83
2021/12/16 06:52:12;;;;;;;17.40;7.43;;;;;;;-145.69;100.00;73962.19;5073140;28;20545;-81
2021/12/16 06:54:52;;;;;;;18.60;7.10;;;;;;;-145.69;100.00;73968.16;5073235;28;20262;-81
2021/12/16 06:57:23;;;;;;;15.17;6.73;;;;;;;-145.69;100.00;73968.16;5073280;28;20198;-81
2021/12/16 06:59:55;;;;;;;16.30;7.10;;;;;;;-145.69;100.00;73968.16;5073179;28;20234;-81
2021/12/16 07:02:45;;;;;;;19.73;6.97;;;;;;;-145.69;100.00;73978.09;5073407;28;20226;-82
2021/12/16 07:05:14;;;;;;;17.87;6.40;;;;;;;-145.69;100.00;73982.09;5073123;28;20728;-81
2021/12/16 07:07:41;;;;;;;18.47;7.30;;;;;;;-145.69;100.00;73982.09;5073090;28;20199;-81
2021/12/16 07:10:12;;;;;;;16.13;5.87;;;;;;;-145.69;100.00;73976.13;5073226;28;20199;-81
2021/12/16 07:12:41;;;;;;;12.63;5.53;;;;;;;-145.69;100.00;73978.09;5072860;28;20202;-81
2021/12/16 07:15:10;;;;;;;15.70;6.07;;;;;;;-145.69;100.00;73982.09;5072739;28;20780;-80
2021/12/16 07:17:39;;;;;;;14.53;6.07;;;;;;;-145.69;100.00;73992.03;5073095;28;20206;-81
2021/12/16 07:20:09;;;;;;;44.47;16.50;;;;;;;-145.69;100.00;73996.03;5072963;28;20203;-81
2021/12/16 07:22:35;;;;;;;79.37;30.43;;;;;;;-145.69;100.00;73998.03;5072688;28;20313;-81
2021/12/16 07:25:03;;;;;;;100.33;34.23;;;;;;;-145.69;100.00;73994.03;5073186;28;20198;-81
2021/12/16 07:27:34;;;;;;;50.57;18.43;;;;;;;-145.69;100.00;73974.13;5058669;28;20204;-81
2021/12/16 07:30:03;;;;;;;28.00;10.63;;;;;;;-145.69;100.00;73978.09;5052660;28;20243;-81
2021/12/16 07:32:30;;;;;;;18.80;7.37;;;;;;;-145.69;100.00;73990.06;5052846;28;20298;-81
2021/12/16 07:34:58;;;;;;;25.00;10.57;;;;;;;-145.69;100.00;73990.06;5052445;28;20207;-81
2021/12/16 07:37:26;;;;;;;20.03;8.93;;;;;;;-145.69;100.00;73982.09;5052534;28;20257;-84
2021/12/16 07:39:55;;;;;;;22.73;7.37;;;;;;;-145.69;100.00;73986.06;5052858;28;20203;-81
2021/12/16 07:42:28;;;;;;;19.73;7.30;;;;;;;-145.69;100.00;73986.06;5067398;28;20224;-81
2021/12/16 07:44:55;;;;;;;19.33;7.33;;;;;;;-145.69;100.00;73976.13;5072636;28;20684;-81
2021/12/16 07:47:22;;;;;;;22.23;8.50;;;;;;;-145.69;100.00;73984.09;5072396;28;20198;-81
2021/12/16 07:49:49;;;;;;;16.03;6.90;;;;;;;-145.69;100.00;73982.09;5076601;28;20261;-81
2021/12/16 07:52:23;;;;;;;20.63;7.63;;;;;;;-145.69;100.00;73972.13;5076351;28;20203;-81
2021/12/16 07:54:53;;;;;;;18.10;6.97;;;;;;;-145.69;100.00;73974.13;5076342;28;20241;-80
2021/12/16 07:57:22;;;;;;;22.85;8.63;;;;;;;-145.69;100.00;73970.16;5075526;28;20446;-81
2021/12/16 07:59:49;;;;;;;20.37;8.43;;;;;;;-145.69;100.00;73972.13;5076387;28;20718;-79
2021/12/16 08:02:18;;;;;;;17.27;6.27;;;;;;;-145.69;100.00;73966.16;5076027;28;20226;-80
2021/12/16 08:04:45;;;;;;;18.33;6.80;;;;;;;-145.69;100.00;73970.16;5075925;28;20289;-80
2021/12/16 08:07:20;;;;;;;17.13;6.90;;;;;;;-145.69;100.00;73950.22;5076576;28;20213;-81
2021/12/16 08:09:50;;;;;;;24.60;10.03;;;;;;;-145.69;100.00;73946.25;5076270;28;20603;-80
2021/12/16 08:12:18;;;;;;;24.13;11.90;;;;;;;-145.69;100.00;73940.28;5076357;28;20198;-80
2021/12/16 08:14:47;;;;;;;31.63;11.97;;;;;;;-145.69;100.00;73930.31;5075758;28;20562;-80
2021/12/16 08:17:15;;;;;;;22.87;10.73;;;;;;;-145.69;100.00;73932.31;5075966;28;20202;-80
2021/12/16 08:19:44;;;;;;;26.00;12.07;;;;;;;-145.69;100.00;73928.31;5075973;28;20210;-79
2021/12/16 08:22:11;;;;;;;26.27;11.57;;;;;;;-145.69;100.00;73922.34;5076054;28;20272;-80
2021/12/16 08:24:39;;;;;;;19.53;8.77;;;;;;;-145.69;100.00;73930.31;5075964;28;20653;-82
2021/12/16 08:27:09;;;;;;;15.33;7.43;;;;;;;-145.69;100.00;73938.28;5076045;28;20202;-80
2021/12/16 08:29:35;;;;;;;13.83;5.30;;;;;;;-145.69;100.00;73926.34;5075433;28;20645;-80
2021/12/16 08:32:05;;;;;;;11.50;5.43;;;;;;;-145.69;100.00;73924.34;5075840;28;20206;-81
2021/12/16 08:34:33;;;;;;;14.87;7.17;;;;;;;-145.69;100.00;73920.38;5076020;28;20256;-80
2021/12/16 08:37:02;;;;;;;13.73;6.67;;;;;;;-145.69;100.00;73918.38;5075897;28;20238;-82
2021/12/16 08:39:31;;;;;;;11.73;5.80;;;;;;;-145.69;100.00;73918.38;5075772;28;20198;-81
2021/12/16 08:42:01;;;;;;;12.73;6.17;;;;;;;-145.69;100.00;73928.31;5075614;28;20227;-81
2021/12/16 08:44:28;;;;;;;12.23;5.00;;;;;;;-145.69;100.00;73920.38;5075834;28;20233;-81
2021/12/16 08:46:58;;;;;;;9.27;5.10;;;;;;;-145.69;100.00;73930.31;5075321;28;20202;-80
2021/12/16 08:49:24;;;;;;;9.63;5.13;;;;;;;-145.69;100.00;73920.38;5075695;28;20203;-82
2021/12/16 08:51:57;;;;;;;10.30;5.20;;;;;;;-145.69;100.00;73918.38;5075573;28;20268;-81
2021/12/16 08:54:24;;;;;;;10.90;5.50;;;;;;;-145.69;100.00;73908.41;5075402;28;20237;-83
2021/12/16 08:56:52;;;;;;;9.80;4.40;;;;;;;-145.69;100.00;73912.41;5075362;28;20202;-81
2021/12/16 08:59:26;;;;;;;9.23;4.43;;;;;;;-145.69;100.00;73904.44;5075533;28;20209;-82
2021/12/16 09:01:56;;;;;;;8.90;4.73;;;;;;;-145.69;100.00;73906.44;5075451;28;20202;-81
2021/12/16 09:04:24;;;;;;;8.37;4.33;;;;;;;-145.69;100.00;73902.44;5075010;28;20670;-81
2021/12/16 09:06:53;;;;;;;9.00;4.33;;;;;;;-145.69;100.00;73904.44;5075239;28;20203;-82
2021/12/16 09:09:19;;;;;;;9.57;4.70;;;;;;;-145.69;100.00;73896.47;5075060;28;20217;-81
2021/12/16 09:12:02;;;;;;;9.43;4.20;;;;;;;-145.69;100.00;73896.47;5075086;28;20225;-82
2021/12/16 09:14:32;;;;;;;8.67;4.13;;;;;;;-145.69;100.00;73888.50;5075271;28;20203;-83
2021/12/16 09:16:59;;;;;;;7.60;4.20;;;;;;;-145.69;100.00;73878.56;5075031;28;20261;-84
2021/12/16 09:19:26;;;;;;;7.97;3.93;;;;;;;-145.69;100.00;73882.53;5075114;28;20298;-83
2021/12/16 09:21:52;;;;;;;7.50;3.30;;;;;;;-145.69;100.00;73880.53;5074563;28;20191;-83
2021/12/16 09:24:19;;;;;;;6.83;4.27;;;;;;;-145.69;100.00;73882.53;5074538;28;20645;-82
2021/12/16 09:26:47;;;;;;;6.97;4.27;;;;;;;-145.69;100.00;73874.56;5075088;28;20244;-83
2021/12/16 09:29:14;;;;;;;6.13;3.73;;;;;;;-145.69;100.00;73872.56;5074862;28;20202;-82
2021/12/16 09:31:44;;;;;;;6.80;4.13;;;;;;;-145.69;100.00;73876.56;5074819;28;20203;-82
2021/12/16 09:34:11;;;;;;;7.87;3.90;;;;;;;-145.69;100.00;73874.56;5074555;28;20200;-82
2021/12/16 09:36:41;;;;;;;6.50;3.83;;;;;;;-145.69;100.00;73874.56;5059506;28;20261;-82
2021/12/16 09:39:16;;;;;;;9.47;4.43;;;;;;;-145.69;100.00;73866.59;5065848;28;20203;-82
2021/12/16 09:41:49;;;;;;;6.80;3.97;;;;;;;-145.69;100.00;73864.63;5074783;28;20557;-82
2021/12/16 09:44:19;;;;;;;6.77;3.87;;;;;;;-145.69;100.00;73874.56;5074489;28;20317;-82
2021/12/16 09:46:50;;;;;;;6.97;4.13;;;;;;;-145.69;100.00;73870.59;5073825;28;20305;-83
2021/12/16 09:49:21;;;;;;;6.20;3.80;;;;;;;-145.69;100.00;73874.56;5074724;28;20199;-80
2021/12/16 09:51:49;;;;;;;7.27;4.13;;;;;;;-145.69;100.00;73886.50;5074559;28;20217;-83
2021/12/16 09:54:25;;;;;;;6.73;4.17;;;;;;;-145.69;100.00;73876.56;5074223;28;20234;-81
2021/12/16 09:56:55;;;;;;;7.33;4.27;;;;;;;-145.69;100.00;73858.63;5074100;28;20679;-82
2021/12/16 09:59:26;;;;;;;7.57;4.43;;;;;;;-145.69;100.00;73850.69;5074228;28;20207;-81
2021/12/16 10:01:57;;;;;;;9.33;4.90;;;;;;;-145.69;100.00;73846.69;5074116;28;20298;-81
2021/12/16 10:04:31;;;;;;;7.60;4.33;;;;;;;-145.69;100.00;73846.69;5074283;28;20288;-80
2021/12/16 10:06:59;;;;;;;7.40;4.50;;;;;;;-145.69;100.00;73842.72;5074196;28;20202;-81
2021/12/16 10:09:28;;;;;;;7.00;4.30;;;;;;;-145.69;100.00;73842.72;5073993;28;20260;-80
2021/12/16 10:11:57;;;;;;;8.03;4.53;;;;;;;-145.69;100.00;73836.75;5073406;28;20206;-82
2021/12/16 10:14:44;;;;;;;7.20;4.37;;;;;;;-145.69;100.00;73830.75;5074106;28;20206;-81
2021/12/16 10:17:24;;;;;;;8.57;4.50;;;;;;;-145.69;100.00;73830.75;5073805;28;20203;-81
2021/12/16 10:19:52;;;;;;;8.37;4.47;;;;;;;-145.69;100.00;73830.75;5073907;28;20209;-82
2021/12/16 10:22:26;;;;;;;7.53;3.77;;;;;;;-145.69;100.00;73832.75;5074122;28;20195;-82
2021/12/16 10:24:54;;;;;;;8.80;4.00;;;;;;;-145.69;100.00;73828.78;5073958;28;20209;-81
2021/12/16 10:27:23;;;;;;;6.47;3.50;;;;;;;-145.69;100.00;73814.84;5073768;28;20210;-81
2021/12/16 10:29:53;;;;;;;9.93;4.40;;;;;;;-145.69;100.00;73812.84;5073444;28;20600;-80
2021/12/16 10:32:39;;;;;;;6.30;3.70;;;;;;;-145.69;100.00;73814.84;5073649;28;20194;-80
2021/12/16 10:35:13;;;;;;;6.80;3.67;;;;;;;-145.69;100.00;73820.81;5073642;28;20205;-80
2021/12/16 10:37:42;;;;;;;8.07;3.73;;;;;;;-145.69;100.00;73810.84;5073219;28;20208;-81
2021/12/16 10:40:30;;;;;;;7.40;4.00;;;;;;;-145.69;100.00;73810.84;5073622;28;20546;-81
2021/12/16 10:42:58;;;;;;;9.20;4.30;;;;;;;-145.69;100.00;73802.88;5073873;28;20229;-80
2021/12/16 10:45:27;;;;;;;7.23;3.80;;;;;;;-145.69;100.00;73798.91;5073196;28;20253;-81
2021/12/16 10:48:20;;;;;;;8.27;4.03;;;;;;;-145.69;100.00;73806.88;5073335;28;20203;-81
2021/12/16 10:50:59;;;;;;;7.43;3.80;;;;;;;-145.69;100.00;73810.84;5073101;28;20221;-81
2021/12/16 10:54:03;;;;;;;9.57;4.03;;;;;;;-145.69;100.00;73794.94;5072875;28;20198;-82
2021/12/16 10:56:34;;;;;;;6.33;3.70;;;;;;;-145.69;100.00;73782.97;5072200;28;20191;-80
2021/12/16 10:59:04;;;;;;;7.97;4.20;;;;;;;-145.69;100.00;73782.97;5070926;28;20195;-80
2021/12/16 11:01:48;;;;;;;8.23;4.13;;;;;;;-145.69;100.00;73781.00;5072783;28;20256;-79
2021/12/16 11:04:21;;;;;;;9.73;4.27;;;;;;;-145.69;100.00;73779.00;5068108;28;20222;-79
2021/12/16 11:06:52;;;;;;;10.07;4.50;;;;;;;-145.69;100.00;73759.09;5072264;28;20206;-78
2021/12/16 11:09:23;;;;;;;8.37;4.50;;;;;;;-145.69;100.00;73759.09;5070312;28;20206;-78
2021/12/16 11:11:50;;;;;;;11.23;4.83;;;;;;;-145.69;100.00;73765.06;5071991;28;20203;-81
2021/12/16 11:14:22;;;;;;;7.30;3.90;;;;;;;-145.69;100.00;73767.06;5072425;28;20191;-81
2021/12/16 11:16:59;;;;;;;10.93;5.20;;;;;;;-145.69;100.00;73775.00;5072775;28;20195;-81
2021/12/16 11:19:44;;;;;;;9.43;5.17;;;;;;;-145.69;100.00;73767.06;5071515;28;20191;-81
2021/12/16 11:22:13;;;;;;;14.70;4.77;;;;;;;-145.69;100.00;73792.94;5070985;28;20190;-81
2021/12/16 11:24:40;;;;;;;13.53;5.30;;;;;;;-145.69;100.00;73786.97;5072217;28;20226;-81
2021/12/16 11:27:25;;;;;;;8.73;4.37;;;;;;;-145.69;100.00;73769.03;5072656;28;20263;-82
2021/12/16 11:29:51;;;;;;;9.27;5.00;;;;;;;-145.69;100.00;73749.13;5072917;28;20202;-81
2021/12/16 11:32:41;;;;;;;11.63;4.63;;;;;;;-145.69;100.00;73731.22;5072480;28;20534;-80
2021/12/16 11:35:32;;;;;;;9.33;4.70;;;;;;;-145.69;100.00;73723.25;5072268;28;20198;-81
2021/12/16 11:38:06;;;;;;;12.13;4.43;;;;;;;-145.69;100.00;73707.31;5072847;28;20277;-80
2021/12/16 11:41:07;;;;;;;9.87;5.00;;;;;;;-145.69;100.00;73699.34;5072570;28;20195;-79
2021/12/16 11:43:39;;;;;;;10.07;4.60;;;;;;;-145.69;100.00;73689.41;5072519;28;20222;-82
2021/12/16 11:46:11;;;;;;;11.17;4.90;;;;;;;-145.69;100.00;73695.38;5064529;28;20192;-81
2021/12/16 11:48:40;;;;;;;8.57;4.60;;;;;;;-145.69;100.00;73683.44;5052832;28;20608;-82
2021/12/16 11:51:11;;;;;;;10.70;5.30;;;;;;;-145.69;100.00;73687.41;5064570;28;20557;-81
2021/12/16 11:53:41;;;;;;;11.67;4.93;;;;;;;-145.69;100.00;73687.41;5072502;28;20203;-81
2021/12/16 11:56:10;;;;;;;10.43;4.90;;;;;;;-145.69;100.00;73681.44;5072574;28;20210;-80
2021/12/16 11:58:37;;;;;;;8.67;5.00;;;;;;;-145.69;100.00;73683.44;5072762;28;20244;-81
2021/12/16 12:01:12;;;;;;;7.40;4.30;;;;;;;-145.69;100.00;73675.47;5072821;28;20652;-82
2021/12/16 12:03:39;;;;;;;9.43;4.50;;;;;;;-145.69;100.00;73663.53;5072787;28;20607;-81
2021/12/16 12:06:05;;;;;;;8.87;4.37;;;;;;;-145.69;100.00;73683.44;5072730;28;20233;-82
2021/12/16 12:08:33;;;;;;;8.70;4.53;;;;;;;-145.69;100.00;73687.41;5072257;28;20260;-82
2021/12/16 12:11:06;;;;;;;7.70;4.60;;;;;;;-145.69;100.00;73683.44;5072790;28;20604;-81
2021/12/16 12:13:37;;;;;;;6.37;4.30;;;;;;;-145.69;100.00;73677.47;5072497;28;20206;-81
2021/12/16 12:16:09;;;;;;;6.17;4.10;;;;;;;-145.69;100.00;73673.47;5072415;28;20245;-83
2021/12/16 12:18:40;;;;;;;9.60;4.97;;;;;;;-145.69;100.00;73677.47;5072393;28;20198;-82
2021/12/16 12:21:26;;;;;;;7.17;4.33;;;;;;;-145.69;100.00;73679.44;5072171;28;20658;-81
2021/12/16 12:23:57;;;;;;;6.73;4.27;;;;;;;-145.69;100.00;73671.47;5072045;28;20218;-82
2021/12/16 12:26:27;;;;;;;9.20;4.63;;;;;;;-145.69;100.00;73665.50;5072442;28;20206;-82
2021/12/16 12:29:01;;;;;;;9.93;4.47;;;;;;;-145.69;100.00;73659.53;5072283;28;20248;-81
2021/12/16 12:31:31;;;;;;;7.83;4.27;;;;;;;-145.69;100.00;73649.59;5072104;28;20209;-81
2021/12/16 12:33:58;;;;;;;7.50;4.07;;;;;;;-145.69;100.00;73643.59;5073293;28;20682;-81
2021/12/16 12:36:27;;;;;;;8.17;4.67;;;;;;;-145.69;100.00;73649.59;5075913;28;20264;-81
2021/12/16 12:38:56;;;;;;;8.90;5.00;;;;;;;-145.69;100.00;73661.53;5075783;28;20297;-81
2021/12/16 12:41:23;;;;;;;8.83;5.20;;;;;;;-145.69;100.00;73659.53;5074977;28;20561;-81
2021/12/16 12:43:50;;;;;;;9.53;5.00;;;;;;;-145.69;100.00;73643.59;5075398;28;20276;-81
2021/12/16 12:46:21;;;;;;;10.17;4.53;;;;;;;-145.69;100.00;73627.69;5075567;28;20226;-81
2021/12/16 12:48:49;;;;;;;8.57;4.70;;;;;;;-145.69;100.00;73633.66;5075782;28;20264;-81
2021/12/16 12:51:16;;;;;;;8.07;4.10;;;;;;;-145.69;100.00;73627.69;5075929;28;20202;-81
2021/12/16 12:53:49;;;;;;;7.13;3.90;;;;;;;-145.69;100.00;73607.78;5075323;28;20203;-83
2021/12/16 12:56:22;;;;;;;17.30;7.53;;;;;;;-145.69;100.00;73593.84;5075697;28;20199;-81
2021/12/16 12:58:58;;;;;;;14.63;7.13;;;;;;;-145.69;100.00;73599.81;5075398;28;20203;-81
2021/12/16 13:01:40;;;;;;;9.93;4.43;;;;;;;-145.69;100.00;73613.75;5075794;28;20206;-81
2021/12/16 13:04:17;;;;;;;36.57;15.33;;;;;;;-145.69;100.00;73623.69;5075598;28;20735;-82
2021/12/16 13:06:55;;;;;;;7.83;3.93;;;;;;;-145.69;100.00;73601.81;5075528;28;20199;-81
2021/12/16 13:09:34;;;;;;;11.23;6.10;;;;;;;-145.69;100.00;73625.69;5075588;28;20203;-79